Time;durP1;ratioP1;P1;durP2;ratioP2;P2;SDS_P1;SDS_P2;PMS_P1;PMS_P2;Temp;Humidity;BMP_temperature;BMP_pressure;BME280_temperature;BME280_humidity;BME280_pressure;Samples;Min_cycle;Max_cycle;Signal;HPM_P1;HPM_P2
2021/11/14 00:01:57;;;;;;;31.48;18.92;;;23.60;45.90;;;;;;6154546;28;83375;-64
2021/11/14 00:04:57;;;;;;;34.25;19.70;;;23.50;45.60;;;;;;6159414;28;83558;-64
2021/11/14 00:07:57;;;;;;;31.10;19.00;;;23.60;45.60;;;;;;6157086;28;82954;-64
2021/11/14 00:10:58;;;;;;;32.42;19.63;;;23.50;45.70;;;;;;6151028;28;83076;-64
2021/11/14 00:13:59;;;;;;;31.15;18.20;;;23.50;46.30;;;;;;6154470;28;83725;-64
2021/11/14 00:16:59;;;;;;;31.92;19.80;;;23.50;45.70;;;;;;6151729;28;83124;-64
2021/11/14 00:20:00;;;;;;;30.55;18.70;;;23.50;46.00;;;;;;6150185;28;83069;-64
2021/11/14 00:23:00;;;;;;;29.83;17.70;;;23.50;45.80;;;;;;6152903;28;83119;-64
2021/11/14 00:26:01;;;;;;;31.90;18.70;;;23.50;45.80;;;;;;6161786;28;83264;-64
2021/11/14 00:29:01;;;;;;;31.90;17.08;;;23.50;45.80;;;;;;6155256;28;84015;-64
2021/11/14 00:32:05;;;;;;;27.00;17.13;;;23.50;46.00;;;;;;6158983;28;86184;-65
2021/11/14 00:35:06;;;;;;;26.08;16.67;;;23.50;46.20;;;;;;6157417;28;83104;-65
2021/11/14 00:38:06;;;;;;;28.25;17.50;;;23.50;46.30;;;;;;6153718;28;83950;-65
2021/11/14 00:41:07;;;;;;;28.17;17.15;;;23.50;46.20;;;;;;6147103;28;85642;-64
2021/11/14 00:44:08;;;;;;;26.77;17.25;;;23.50;46.20;;;;;;6150045;28;83094;-64
2021/11/14 00:47:09;;;;;;;26.90;17.48;;;23.50;46.40;;;;;;6153777;28;82988;-64
2021/11/14 00:50:11;;;;;;;30.55;18.30;;;23.40;46.40;;;;;;6150139;28;84200;-64
2021/11/14 00:53:11;;;;;;;25.80;16.73;;;23.50;46.30;;;;;;6150782;28;83286;-64
2021/11/14 00:56:12;;;;;;;32.47;19.52;;;23.40;46.00;;;;;;6151042;28;89793;-64
2021/11/14 00:59:12;;;;;;;26.92;16.73;;;23.50;46.20;;;;;;6153610;28;83273;-65
2021/11/14 01:02:13;;;;;;;28.08;16.80;;;23.40;46.00;;;;;;6150851;28;84429;-64
2021/11/14 01:05:14;;;;;;;27.23;17.65;;;23.40;46.10;;;;;;6153033;28;83314;-64
2021/11/14 01:08:14;;;;;;;31.63;18.05;;;23.40;45.90;;;;;;6148806;28;83375;-64
2021/11/14 01:11:15;;;;;;;35.65;18.63;;;23.40;45.90;;;;;;6151426;28;82890;-64
2021/11/14 01:14:15;;;;;;;27.80;17.88;;;23.40;45.90;;;;;;6154497;28;83485;-64
2021/11/14 01:17:16;;;;;;;27.10;17.23;;;23.40;47.20;;;;;;6151573;28;84253;-64
2021/11/14 01:20:16;;;;;;;30.75;18.23;;;23.40;45.80;;;;;;6153547;28;83646;-63
2021/11/14 01:23:17;;;;;;;32.58;18.90;;;23.40;45.90;;;;;;6152426;28;85309;-63
2021/11/14 01:26:18;;;;;;;24.02;17.17;;;23.40;45.60;;;;;;6154309;28;83241;-64
2021/11/14 01:29:18;;;;;;;28.48;18.15;;;23.40;46.40;;;;;;6152816;28;85385;-64
2021/11/14 01:32:19;;;;;;;24.67;17.48;;;23.40;45.70;;;;;;6150828;28;83072;-65
2021/11/14 01:35:19;;;;;;;25.85;17.08;;;23.40;45.60;;;;;;6151971;28;84370;-64
2021/11/14 01:38:20;;;;;;;27.73;18.42;;;23.40;45.70;;;;;;6151101;28;83048;-64
2021/11/14 01:41:20;;;;;;;29.45;17.48;;;23.40;45.70;;;;;;6152659;28;83790;-66
2021/11/14 01:44:21;;;;;;;25.10;15.75;;;23.40;46.20;;;;;;6151214;28;83594;-64
2021/11/14 01:47:21;;;;;;;25.30;15.52;;;23.40;46.90;;;;;;6151865;28;83545;-64
2021/11/14 01:50:22;;;;;;;24.33;15.88;;;23.40;46.10;;;;;;6153039;28;83245;-65
2021/11/14 01:53:22;;;;;;;23.98;15.65;;;23.40;46.30;;;;;;6153222;28;83645;-64
2021/11/14 01:56:23;;;;;;;25.80;16.40;;;23.40;46.30;;;;;;6152298;28;84366;-63
2021/11/14 01:59:23;;;;;;;28.73;17.23;;;23.40;46.50;;;;;;6152653;28;83164;-64
2021/11/14 02:02:24;;;;;;;23.33;14.93;;;23.40;46.30;;;;;;6151852;28;84545;-63
2021/11/14 02:05:24;;;;;;;26.23;15.80;;;23.40;46.70;;;;;;6151111;28;83422;-63
2021/11/14 02:08:25;;;;;;;21.90;14.88;;;23.40;46.30;;;;;;6147706;28;84419;-66
2021/11/14 02:11:25;;;;;;;26.13;16.20;;;23.40;46.40;;;;;;6151534;28;84028;-63
2021/11/14 02:14:26;;;;;;;23.55;15.18;;;23.40;46.50;;;;;;6149800;28;83333;-63
2021/11/14 02:17:26;;;;;;;21.05;14.48;;;23.40;46.60;;;;;;6151648;28;83735;-65
2021/11/14 02:20:27;;;;;;;25.20;16.17;;;23.40;46.60;;;;;;6152308;28;89264;-65
2021/11/14 02:23:27;;;;;;;20.45;14.05;;;23.40;46.70;;;;;;6152187;28;83806;-64
2021/11/14 02:26:28;;;;;;;22.00;14.15;;;23.40;46.60;;;;;;6150598;28;84140;-64
2021/11/14 02:29:28;;;;;;;24.60;15.02;;;23.40;46.60;;;;;;6151322;28;84621;-65
2021/11/14 02:32:29;;;;;;;19.90;14.38;;;23.40;46.50;;;;;;6144989;28;83053;-65
2021/11/14 02:35:29;;;;;;;21.38;14.43;;;23.40;46.30;;;;;;6150710;28;83165;-65
2021/11/14 02:38:30;;;;;;;22.50;15.00;;;23.40;46.70;;;;;;6150105;28;84189;-65
2021/11/14 02:41:31;;;;;;;22.15;14.95;;;23.40;46.40;;;;;;6152572;28;84980;-65
2021/11/14 02:44:31;;;;;;;21.00;14.52;;;23.30;46.40;;;;;;6151594;28;84332;-64
2021/11/14 02:47:32;;;;;;;23.75;15.82;;;23.30;46.50;;;;;;6149724;28;84120;-65
2021/11/14 02:50:32;;;;;;;23.05;15.13;;;23.40;46.00;;;;;;6152479;28;82954;-65
2021/11/14 02:53:33;;;;;;;22.27;15.45;;;23.40;46.10;;;;;;6156235;28;82974;-65
2021/11/14 02:56:33;;;;;;;23.58;15.20;;;23.40;46.10;;;;;;6150170;28;84393;-65
2021/11/14 02:59:34;;;;;;;24.00;15.55;;;23.30;46.40;;;;;;6148909;28;83252;-65
2021/11/14 03:02:34;;;;;;;23.67;15.80;;;23.30;46.00;;;;;;6151044;28;83484;-65
2021/11/14 03:05:35;;;;;;;23.13;15.52;;;23.30;45.90;;;;;;6149916;28;83037;-66
2021/11/14 03:08:35;;;;;;;26.30;15.75;;;23.30;45.80;;;;;;6151096;28;82808;-66
2021/11/14 03:11:36;;;;;;;26.48;15.98;;;23.30;45.90;;;;;;6151164;28;83011;-66
2021/11/14 03:14:36;;;;;;;24.08;15.68;;;23.30;45.90;;;;;;6151058;28;84667;-65
2021/11/14 03:17:37;;;;;;;23.52;14.98;;;23.40;46.10;;;;;;6151919;28;89176;-64
2021/11/14 03:20:37;;;;;;;24.60;16.02;;;23.30;46.20;;;;;;6150825;28;84079;-64
2021/11/14 03:23:38;;;;;;;21.73;14.50;;;23.30;45.30;;;;;;6149275;28;83471;-64
2021/11/14 03:26:38;;;;;;;26.40;16.67;;;23.40;45.10;;;;;;6150875;28;83761;-65
2021/11/14 03:29:39;;;;;;;23.95;15.55;;;23.40;44.80;;;;;;6150025;28;83449;-65
2021/11/14 03:32:39;;;;;;;27.60;16.85;;;23.40;44.50;;;;;;6149783;28;83299;-65
2021/11/14 03:35:40;;;;;;;25.70;16.50;;;23.40;44.40;;;;;;6150463;28;85287;-65
2021/11/14 03:38:41;;;;;;;24.40;15.90;;;23.50;44.40;;;;;;6165438;28;83198;-65
2021/11/14 03:41:41;;;;;;;24.17;15.65;;;23.50;44.40;;;;;;6157398;28;83450;-64
2021/11/14 03:44:42;;;;;;;26.92;16.75;;;23.50;44.20;;;;;;6155096;28;83259;-65
2021/11/14 03:47:42;;;;;;;27.67;16.65;;;23.60;44.20;;;;;;6154815;28;84831;-65
2021/11/14 03:50:43;;;;;;;23.17;15.05;;;23.60;44.10;;;;;;6153834;28;83029;-64
2021/11/14 03:53:43;;;;;;;25.75;16.25;;;23.60;44.10;;;;;;6153872;28;84485;-64
2021/11/14 03:56:44;;;;;;;26.08;16.13;;;23.60;44.10;;;;;;6154328;28;84337;-63
2021/11/14 03:59:44;;;;;;;25.52;15.82;;;23.70;44.00;;;;;;6156505;28;83488;-64
2021/11/14 04:02:45;;;;;;;25.20;15.95;;;23.60;43.90;;;;;;6143552;28;83858;-64
2021/11/14 04:05:45;;;;;;;22.73;15.00;;;23.70;43.90;;;;;;6148031;28;84250;-64
2021/11/14 04:08:46;;;;;;;23.23;15.38;;;23.70;44.60;;;;;;6147022;28;84365;-63
2021/11/14 04:11:46;;;;;;;23.42;15.70;;;23.70;43.80;;;;;;6153829;28;83444;-62
2021/11/14 04:14:47;;;;;;;26.20;16.15;;;23.70;43.90;;;;;;6155033;28;83683;-64
2021/11/14 04:17:55;;;;;;;27.45;16.65;;;23.70;43.60;;;;;;6147107;28;86035;-63
2021/11/14 04:20:55;;;;;;;25.10;16.17;;;23.70;43.70;;;;;;6145072;28;83182;-63
2021/11/14 04:23:56;;;;;;;25.65;15.30;;;23.80;43.50;;;;;;6145685;28;84362;-63
2021/11/14 04:26:56;;;;;;;23.58;15.63;;;23.80;43.50;;;;;;6151977;28;83503;-64
2021/11/14 04:29:57;;;;;;;25.63;16.52;;;23.80;43.50;;;;;;6142912;28;83486;-63
2021/11/14 04:32:58;;;;;;;28.35;17.85;;;23.80;43.40;;;;;;6155808;28;84918;-63
2021/11/14 04:35:58;;;;;;;28.65;16.50;;;23.80;43.50;;;;;;6138794;28;83586;-63
2021/11/14 04:38:59;;;;;;;23.55;16.40;;;23.80;43.40;;;;;;6139383;28;83841;-63
2021/11/14 04:41:59;;;;;;;25.48;15.52;;;23.90;43.10;;;;;;6147644;28;83089;-62
2021/11/14 04:45:00;;;;;;;27.73;16.60;;;23.90;43.10;;;;;;6152917;28;82836;-63
2021/11/14 04:48:00;;;;;;;27.92;17.27;;;23.90;43.00;;;;;;6140485;28;84318;-63
2021/11/14 04:51:01;;;;;;;24.08;15.48;;;23.90;43.10;;;;;;6142284;28;83187;-64
2021/11/14 04:54:01;;;;;;;23.55;16.13;;;23.90;43.10;;;;;;6135913;28;84474;-64
2021/11/14 04:57:02;;;;;;;25.60;16.30;;;23.90;43.20;;;;;;6148335;28;83370;-62
2021/11/14 05:00:02;;;;;;;27.45;16.77;;;23.90;43.30;;;;;;6152933;28;83812;-63
2021/11/14 05:03:03;;;;;;;26.70;16.90;;;23.90;43.40;;;;;;6149819;28;83413;-62
2021/11/14 05:06:08;;;;;;;28.42;17.90;;;23.90;43.30;;;;;;6161247;28;83474;-68
2021/11/14 05:09:08;;;;;;;24.77;16.90;;;23.90;43.30;;;;;;6138586;28;82936;-66
2021/11/14 05:12:09;;;;;;;30.42;18.10;;;23.90;43.00;;;;;;6155040;28;83928;-66
2021/11/14 05:15:10;;;;;;;29.27;17.20;;;23.90;43.30;;;;;;6141749;28;83204;-66
2021/11/14 05:18:10;;;;;;;32.42;18.08;;;23.90;43.60;;;;;;6154552;28;83433;-63
2021/11/14 05:21:11;;;;;;;30.20;17.80;;;23.90;43.90;;;;;;6145895;28;82745;-62
2021/11/14 05:24:11;;;;;;;27.00;16.67;;;23.90;44.10;;;;;;6143591;28;83581;-63
2021/11/14 05:27:12;;;;;;;21.85;13.55;;;23.90;45.10;;;;;;6152465;28;83201;-63
2021/11/14 05:30:12;;;;;;;21.52;13.35;;;23.90;46.30;;;;;;6144152;28;82798;-63
2021/11/14 05:33:13;;;;;;;18.80;12.38;;;23.90;47.10;;;;;;6140512;28;83419;-63
2021/11/14 05:36:13;;;;;;;18.55;11.68;;;23.80;47.60;;;;;;6140093;28;83817;-64
2021/11/14 05:39:14;;;;;;;17.88;10.73;;;23.80;48.10;;;;;;6142629;28;83147;-63
2021/11/14 05:42:14;;;;;;;14.85;10.48;;;23.80;48.90;;;;;;6142569;28;83447;-62
2021/11/14 05:45:15;;;;;;;18.13;10.75;;;23.80;49.60;;;;;;6142347;28;82806;-64
2021/11/14 05:48:15;;;;;;;16.77;10.85;;;23.80;50.00;;;;;;6144124;28;86108;-64
2021/11/14 05:51:16;;;;;;;14.82;9.52;;;23.80;50.50;;;;;;6137341;28;82933;-64
2021/11/14 05:54:16;;;;;;;14.90;9.25;;;23.80;50.80;;;;;;6151644;28;81746;-63
2021/11/14 05:57:17;;;;;;;14.82;9.73;;;23.80;50.70;;;;;;6151710;28;80513;-62
2021/11/14 06:00:31;;;;;;;14.23;9.68;;;23.70;51.20;;;;;;6149681;28;80938;-62
2021/11/14 06:03:34;;;;;;;15.57;9.50;;;23.70;51.60;;;;;;6144712;28;81499;-61
2021/11/14 06:06:35;;;;;;;14.60;8.90;;;23.70;52.20;;;;;;6141091;28;85136;-62
2021/11/14 06:09:35;;;;;;;13.65;9.27;;;23.70;52.60;;;;;;6143708;28;80567;-63
2021/11/14 06:12:37;;;;;;;13.95;8.50;;;23.80;52.90;;;;;;6144941;28;80499;-64
2021/11/14 06:15:38;;;;;;;15.75;9.43;;;23.70;53.20;;;;;;6149755;28;80512;-64
2021/11/14 06:18:39;;;;;;;12.82;8.80;;;23.70;53.60;;;;;;6143959;28;80728;-64
2021/11/14 06:21:39;;;;;;;14.32;9.25;;;23.60;53.90;;;;;;6151949;28;80786;-64
2021/11/14 06:24:40;;;;;;;13.57;9.10;;;23.60;54.40;;;;;;6151037;28;80926;-63
2021/11/14 06:27:40;;;;;;;13.15;8.13;;;23.60;54.70;;;;;;6150558;28;80639;-65
2021/11/14 06:30:41;;;;;;;16.17;9.68;;;23.60;54.50;;;;;;6144569;28;80532;-62
2021/11/14 06:33:41;;;;;;;18.55;8.93;;;23.50;55.00;;;;;;6152285;28;81277;-66
2021/11/14 06:36:42;;;;;;;14.43;8.65;;;23.50;55.50;;;;;;6151918;28;81609;-64
2021/11/14 06:39:42;;;;;;;13.77;8.50;;;23.50;55.80;;;;;;6147279;28;81588;-65
2021/11/14 06:42:43;;;;;;;16.50;9.90;;;23.50;55.60;;;;;;6142938;28;80393;-64
2021/11/14 06:45:43;;;;;;;15.73;9.57;;;23.50;55.70;;;;;;6148965;28;81111;-65
2021/11/14 06:48:44;;;;;;;14.13;8.55;;;23.50;56.50;;;;;;6150130;28;81513;-64
2021/11/14 06:51:44;;;;;;;15.50;9.55;;;23.50;55.60;;;;;;6146406;28;81091;-65
2021/11/14 06:54:45;;;;;;;16.67;9.13;;;23.40;56.50;;;;;;6148488;28;81351;-65
2021/11/14 06:57:45;;;;;;;15.68;9.65;;;23.50;56.20;;;;;;6151176;28;82642;-63
2021/11/14 07:00:46;;;;;;;17.92;9.65;;;23.50;55.90;;;;;;6152397;28;80488;-64
2021/11/14 07:03:47;;;;;;;14.77;8.60;;;23.40;56.10;;;;;;6152840;28;83326;-66
2021/11/14 07:06:47;;;;;;;13.20;8.48;;;23.40;57.10;;;;;;6147944;28;81377;-64
2021/11/14 07:09:48;;;;;;;12.93;8.30;;;23.30;57.00;;;;;;6149144;28;81400;-64
2021/11/14 07:12:48;;;;;;;12.63;8.15;;;23.30;57.30;;;;;;6151730;28;82020;-66
2021/11/14 07:15:49;;;;;;;16.13;8.65;;;23.30;57.60;;;;;;6150497;28;80457;-64
2021/11/14 07:18:49;;;;;;;15.23;9.05;;;23.30;57.50;;;;;;6149993;28;81465;-64
2021/11/14 07:21:50;;;;;;;17.92;9.40;;;23.30;58.10;;;;;;6154497;28;81311;-63
2021/11/14 07:24:50;;;;;;;18.17;9.00;;;23.30;56.80;;;;;;6149212;28;80449;-63
2021/11/14 07:27:51;;;;;;;14.40;8.25;;;23.20;57.60;;;;;;6150289;28;82043;-64
2021/11/14 07:30:51;;;;;;;18.92;11.13;;;23.30;57.30;;;;;;6151821;28;80481;-63
2021/11/14 07:33:52;;;;;;;17.08;10.63;;;23.30;57.10;;;;;;6152603;28;84460;-64
2021/11/14 07:36:52;;;;;;;18.88;10.68;;;23.30;57.40;;;;;;6148701;28;83080;-64
2021/11/14 07:39:53;;;;;;;17.85;9.90;;;23.30;57.80;;;;;;6149174;28;84138;-63
2021/11/14 07:42:53;;;;;;;14.93;9.38;;;23.30;58.00;;;;;;6149922;28;83554;-63
2021/11/14 07:45:54;;;;;;;14.25;9.50;;;23.20;58.60;;;;;;6153342;28;80475;-63
2021/11/14 07:48:54;;;;;;;16.30;8.40;;;23.30;58.80;;;;;;6150501;28;80879;-62
2021/11/14 07:51:55;;;;;;;15.07;9.13;;;23.30;59.20;;;;;;6150409;28;80462;-63
2021/11/14 07:54:55;;;;;;;14.82;9.32;;;23.30;59.40;;;;;;6153015;28;80751;-63
2021/11/14 07:57:58;;;;;;;15.70;9.02;;;23.30;59.90;;;;;;6143341;28;80317;-64
2021/11/14 08:00:59;;;;;;;15.68;9.57;;;23.40;59.60;;;;;;6153239;28;81019;-64
2021/11/14 08:03:59;;;;;;;14.55;8.98;;;23.30;59.90;;;;;;6153467;28;80519;-62
2021/11/14 08:07:00;;;;;;;14.23;9.13;;;23.40;59.10;;;;;;6155028;28;81199;-64
2021/11/14 08:10:00;;;;;;;13.68;8.55;;;23.40;58.80;;;;;;6155716;28;81772;-67
2021/11/14 08:13:01;;;;;;;16.95;10.88;;;23.40;58.10;;;;;;6145717;28;80203;-66
2021/11/14 08:16:01;;;;;;;14.85;9.52;;;23.50;57.60;;;;;;6139306;28;83903;-66
2021/11/14 08:19:02;;;;;;;17.40;10.18;;;23.40;57.40;;;;;;6142836;28;84999;-64
2021/11/14 08:22:02;;;;;;;16.77;9.50;;;23.40;57.50;;;;;;6145997;28;83979;-65
2021/11/14 08:25:03;;;;;;;15.32;9.30;;;23.40;57.10;;;;;;6146770;28;83929;-65
2021/11/14 08:28:03;;;;;;;20.20;10.93;;;23.40;57.80;;;;;;6152062;28;80443;-64
2021/11/14 08:31:04;;;;;;;49.00;15.77;;;23.40;57.00;;;;;;6149395;28;83036;-63
2021/11/14 08:34:06;;;;;;;39.08;15.35;;;23.50;57.20;;;;;;6143766;28;83496;-65
2021/11/14 08:37:07;;;;;;;34.90;13.10;;;23.40;57.10;;;;;;6145299;28;83447;-67
2021/11/14 08:40:07;;;;;;;34.60;13.45;;;23.50;57.90;;;;;;6144092;28;85132;-64
2021/11/14 08:43:08;;;;;;;27.77;13.18;;;23.50;58.10;;;;;;6148886;28;84119;-64
2021/11/14 08:46:08;;;;;;;30.45;12.63;;;23.50;58.60;;;;;;6148652;28;83471;-63
2021/11/14 08:49:09;;;;;;;23.92;12.75;;;23.50;58.90;;;;;;6149436;28;83740;-62
2021/11/14 08:52:10;;;;;;;29.75;11.27;;;23.60;58.80;;;;;;6149013;28;84570;-65
2021/11/14 08:55:11;;;;;;;23.15;12.10;;;23.60;59.40;;;;;;6151470;28;83158;-65
2021/11/14 08:58:11;;;;;;;21.90;11.80;;;23.60;60.10;;;;;;6148346;28;84244;-63
2021/11/14 09:01:12;;;;;;;22.02;12.18;;;23.50;60.90;;;;;;6149983;28;84168;-64
2021/11/14 09:04:12;;;;;;;22.35;11.13;;;23.60;61.60;;;;;;6151421;28;84037;-64
2021/11/14 09:07:13;;;;;;;21.98;11.50;;;23.60;61.80;;;;;;6149278;28;83247;-63
2021/11/14 09:10:13;;;;;;;17.52;11.18;;;23.60;62.70;;;;;;6153292;28;82881;-64
2021/11/14 09:13:15;;;;;;;20.92;11.35;;;23.60;63.40;;;;;;6149836;28;83720;-63
2021/11/14 09:16:16;;;;;;;19.20;10.30;;;23.60;63.20;;;;;;6146636;28;83042;-63
2021/11/14 09:19:16;;;;;;;21.50;11.75;;;23.60;63.50;;;;;;6146335;28;83709;-63
2021/11/14 09:22:17;;;;;;;16.70;10.20;;;23.70;64.50;;;;;;6149053;28;84141;-65
2021/11/14 09:25:17;;;;;;;18.00;11.07;;;23.70;64.00;;;;;;6144896;28;83211;-64
2021/11/14 09:28:18;;;;;;;16.45;10.02;;;23.60;64.40;;;;;;6149074;28;83402;-62
2021/11/14 09:31:18;;;;;;;18.08;10.88;;;23.60;64.90;;;;;;6150533;28;83740;-64
2021/11/14 09:34:19;;;;;;;20.15;11.52;;;23.70;64.30;;;;;;6148711;28;83334;-64
2021/11/14 09:37:19;;;;;;;19.85;10.40;;;23.70;65.10;;;;;;6146608;28;83553;-64
2021/11/14 09:40:20;;;;;;;16.80;10.38;;;23.70;64.90;;;;;;6147432;28;83438;-65
2021/11/14 09:43:20;;;;;;;18.35;10.88;;;23.70;64.70;;;;;;6141102;28;83099;-65
2021/11/14 09:46:21;;;;;;;19.17;11.35;;;23.70;65.30;;;;;;6148785;28;84094;-65
2021/11/14 09:49:21;;;;;;;19.00;11.40;;;23.70;65.30;;;;;;6150322;28;83856;-68
2021/11/14 09:52:22;;;;;;;16.80;10.45;;;23.70;65.20;;;;;;6143245;28;84158;-65
2021/11/14 09:55:23;;;;;;;18.75;11.18;;;23.70;66.10;;;;;;6145909;28;82805;-64
2021/11/14 09:58:23;;;;;;;17.75;10.77;;;23.70;65.90;;;;;;6148074;28;84791;-63
2021/11/14 10:01:24;;;;;;;18.20;10.55;;;23.70;65.30;;;;;;6151166;28;84613;-64
2021/11/14 10:04:24;;;;;;;16.13;10.05;;;23.70;65.40;;;;;;6144936;28;84222;-66
2021/11/14 10:07:25;;;;;;;17.45;10.02;;;23.70;64.70;;;;;;6147890;28;84484;-66
2021/11/14 10:10:25;;;;;;;17.02;10.80;;;23.70;64.10;;;;;;6139464;28;83081;-63
2021/11/14 10:13:26;;;;;;;18.30;10.60;;;23.70;62.60;;;;;;6136124;28;83194;-65
2021/11/14 10:16:27;;;;;;;19.20;9.95;;;23.70;63.40;;;;;;6136058;28;84141;-65
2021/11/14 10:19:28;;;;;;;17.70;11.15;;;23.70;62.60;;;;;;6149887;28;83083;-66
2021/11/14 10:22:28;;;;;;;16.23;10.07;;;23.70;63.80;;;;;;6138926;28;83434;-65
2021/11/14 10:25:29;;;;;;;16.00;10.70;;;23.70;64.80;;;;;;6137162;28;83145;-66
2021/11/14 10:28:29;;;;;;;17.90;11.40;;;23.70;65.30;;;;;;6135854;28;84128;-67
2021/11/14 10:31:31;;;;;;;13.68;9.57;;;23.70;65.40;;;;;;6152584;28;82868;-65
2021/11/14 10:34:31;;;;;;;14.57;10.10;;;23.70;65.50;;;;;;6151887;28;82989;-64
2021/11/14 10:37:32;;;;;;;17.60;11.50;;;23.70;65.70;;;;;;6142863;28;89801;-65
2021/11/14 10:40:33;;;;;;;15.48;9.85;;;23.70;66.30;;;;;;6147102;28;82805;-65
2021/11/14 10:43:37;;;;;;;15.85;10.68;;;23.70;66.90;;;;;;6151724;28;84176;-65
2021/11/14 10:46:38;;;;;;;14.50;9.98;;;23.70;67.00;;;;;;6137005;28;83715;-64
2021/11/14 10:49:38;;;;;;;15.10;9.98;;;23.70;66.60;;;;;;6141415;28;84051;-65
2021/11/14 10:52:39;;;;;;;14.10;9.48;;;23.70;65.70;;;;;;6141744;28;83075;-64
2021/11/14 10:55:39;;;;;;;15.50;10.00;;;23.70;64.70;;;;;;6141057;28;83026;-64
2021/11/14 10:58:41;;;;;;;13.93;9.50;;;23.70;63.40;;;;;;6139991;28;85251;-63
2021/11/14 11:01:41;;;;;;;14.35;9.30;;;23.70;63.20;;;;;;6140230;28;83549;-63
2021/11/14 11:04:42;;;;;;;18.42;10.07;;;23.70;62.20;;;;;;6141733;28;80768;-64
2021/11/14 11:07:42;;;;;;;12.75;8.50;;;23.70;61.70;;;;;;6140721;28;83155;-64
2021/11/14 11:10:43;;;;;;;13.23;8.13;;;23.70;61.20;;;;;;6149807;28;83619;-63
2021/11/14 11:13:44;;;;;;;11.02;7.20;;;23.60;60.10;;;;;;6156554;28;80511;-62
2021/11/14 11:16:44;;;;;;;11.43;7.82;;;23.60;60.10;;;;;;6138893;28;80326;-62
2021/11/14 11:19:45;;;;;;;12.73;7.68;;;23.50;60.50;;;;;;6138154;28;80359;-62
2021/11/14 11:22:45;;;;;;;12.63;7.20;;;23.40;60.40;;;;;;6144449;28;80657;-62
2021/11/14 11:25:47;;;;;;;11.70;8.10;;;23.40;59.90;;;;;;6142144;28;80075;-63
2021/11/14 11:28:47;;;;;;;10.88;7.53;;;23.40;59.90;;;;;;6150338;28;81115;-62
2021/11/14 11:31:48;;;;;;;14.73;7.97;;;23.40;59.70;;;;;;6158611;28;80922;-62
2021/11/14 11:34:48;;;;;;;11.35;7.07;;;23.40;59.30;;;;;;6143652;28;81162;-64
2021/11/14 11:37:49;;;;;;;14.07;6.82;;;23.40;58.90;;;;;;6141648;28;81637;-63
2021/11/14 11:40:50;;;;;;;12.30;7.47;;;23.40;58.60;;;;;;6140318;28;80394;-63
2021/11/14 11:43:54;;;;;;;9.80;6.63;;;23.30;58.10;;;;;;6153586;28;80606;-62
2021/11/14 11:46:54;;;;;;;9.60;7.03;;;23.40;57.90;;;;;;6152699;28;80317;-63
2021/11/14 11:49:55;;;;;;;11.77;7.00;;;23.40;57.50;;;;;;6150724;28;80332;-63
2021/11/14 11:52:55;;;;;;;10.95;7.05;;;23.40;57.20;;;;;;6143184;28;80686;-62
2021/11/14 11:55:56;;;;;;;11.38;6.97;;;23.40;56.90;;;;;;6157584;28;80904;-62
2021/11/14 11:58:57;;;;;;;11.20;7.03;;;23.30;56.80;;;;;;6145140;28;81779;-62
2021/11/14 12:01:57;;;;;;;12.32;6.97;;;23.30;56.70;;;;;;6146313;28;81154;-61
2021/11/14 12:04:58;;;;;;;13.98;7.47;;;23.40;56.70;;;;;;6150731;28;80940;-62
2021/11/14 12:07:59;;;;;;;13.82;6.35;;;23.40;57.00;;;;;;6143270;28;80731;-61
2021/11/14 12:11:00;;;;;;;13.07;6.70;;;23.40;56.70;;;;;;6143817;28;80603;-63
2021/11/14 12:14:00;;;;;;;12.60;7.63;;;23.30;56.20;;;;;;6157465;28;83520;-62
2021/11/14 12:17:01;;;;;;;12.13;7.93;;;23.30;56.20;;;;;;6145158;28;80432;-62
2021/11/14 12:20:01;;;;;;;13.25;7.20;;;23.40;55.90;;;;;;6150902;28;80766;-63
2021/11/14 12:23:02;;;;;;;12.13;6.50;;;23.40;56.10;;;;;;6142843;28;80586;-65
2021/11/14 12:26:02;;;;;;;13.55;7.57;;;23.40;55.60;;;;;;6148312;28;81935;-64
2021/11/14 12:29:06;;;;;;;13.93;8.40;;;23.40;55.30;;;;;;6149930;28;80549;-66
2021/11/14 12:32:06;;;;;;;28.23;15.10;;;23.30;55.40;;;;;;6154362;28;80570;-65
2021/11/14 12:35:07;;;;;;;51.25;22.00;;;23.40;55.30;;;;;;6147807;28;83026;-60
2021/11/14 12:38:09;;;;;;;65.38;26.92;;;23.30;54.80;;;;;;6138270;28;83493;-65
2021/11/14 12:41:11;;;;;;;76.90;29.77;;;23.30;54.90;;;;;;6142354;28;82941;-63
2021/11/14 12:44:11;;;;;;;113.78;40.22;;;23.30;54.60;;;;;;6148036;28;83567;-63
2021/11/14 12:47:12;;;;;;;102.60;35.65;;;23.40;54.80;;;;;;6146269;28;83190;-61
2021/11/14 12:50:14;;;;;;;100.25;31.20;;;23.40;54.70;;;;;;6141612;28;83241;-61
2021/11/14 12:53:15;;;;;;;80.18;27.23;;;23.40;54.50;;;;;;6151040;28;82808;-61
2021/11/14 12:56:15;;;;;;;71.95;23.58;;;23.50;55.00;;;;;;6141408;28;82962;-61
2021/11/14 12:59:16;;;;;;;71.93;22.92;;;23.50;54.40;;;;;;6152539;28;83349;-60
2021/11/14 13:02:16;;;;;;;59.78;22.60;;;23.50;54.90;;;;;;6151434;28;83624;-60
2021/11/14 13:05:17;;;;;;;50.22;18.58;;;23.50;54.90;;;;;;6145401;28;83111;-60
2021/11/14 13:08:19;;;;;;;45.25;17.98;;;23.50;54.70;;;;;;6142418;28;82851;-61
2021/11/14 13:11:19;;;;;;;40.10;16.35;;;23.50;55.10;;;;;;6142030;28;83485;-61
2021/11/14 13:14:20;;;;;;;33.22;14.30;;;23.50;55.10;;;;;;6143453;28;83523;-60
2021/11/14 13:17:20;;;;;;;23.50;11.57;;;23.40;54.80;;;;;;6150722;28;83817;-60
2021/11/14 13:20:21;;;;;;;28.25;11.70;;;23.40;54.90;;;;;;6146820;28;83048;-60
2021/11/14 13:23:21;;;;;;;27.67;10.50;;;23.40;54.80;;;;;;6150649;28;83526;-61
2021/11/14 13:26:22;;;;;;;22.27;9.75;;;23.40;54.90;;;;;;6136661;28;85383;-60
2021/11/14 13:29:22;;;;;;;20.92;9.10;;;23.40;54.80;;;;;;6147569;28;83072;-61
2021/11/14 13:32:23;;;;;;;18.15;8.82;;;23.40;54.80;;;;;;6148159;28;81303;-61
2021/11/14 13:35:23;;;;;;;20.90;8.90;;;23.40;54.70;;;;;;6142096;28;83601;-59
2021/11/14 13:38:24;;;;;;;12.85;7.68;;;23.40;54.40;;;;;;6140861;28;80432;-62
2021/11/14 13:41:24;;;;;;;16.90;7.70;;;23.40;54.30;;;;;;6146159;28;80612;-62
2021/11/14 13:44:25;;;;;;;17.73;8.50;;;23.40;54.40;;;;;;6146196;28;80900;-61
2021/11/14 13:47:25;;;;;;;12.52;7.43;;;23.40;54.30;;;;;;6147865;28;80735;-61
2021/11/14 13:50:26;;;;;;;12.77;6.95;;;23.40;54.10;;;;;;6144215;28;81624;-62
2021/11/14 13:53:27;;;;;;;11.95;7.68;;;23.40;54.00;;;;;;6148377;28;80765;-61
2021/11/14 13:56:28;;;;;;;13.68;7.28;;;23.40;53.90;;;;;;6156529;28;80632;-61
2021/11/14 13:59:28;;;;;;;11.55;7.25;;;23.40;54.00;;;;;;6154751;28;80521;-61
2021/11/14 14:02:31;;;;;;;14.23;7.45;;;23.40;53.70;;;;;;6139274;28;80347;-61
2021/11/14 14:05:31;;;;;;;15.45;7.50;;;23.40;54.10;;;;;;6147073;28;83073;-60
2021/11/14 14:08:32;;;;;;;12.13;7.57;;;23.60;54.80;;;;;;6151895;28;80678;-60
2021/11/14 14:11:32;;;;;;;13.18;7.05;;;23.60;54.60;;;;;;6153730;28;83045;-61
2021/11/14 14:14:33;;;;;;;11.88;6.90;;;23.60;54.60;;;;;;6150802;28;80516;-61
2021/11/14 14:17:33;;;;;;;13.98;6.95;;;23.70;55.30;;;;;;6140134;28;81767;-61
2021/11/14 14:20:34;;;;;;;10.50;6.38;;;23.70;55.70;;;;;;6146735;28;80302;-61
2021/11/14 14:23:35;;;;;;;11.50;7.53;;;23.70;56.00;;;;;;6147942;28;80796;-61
2021/11/14 14:26:35;;;;;;;14.57;7.85;;;23.70;56.20;;;;;;6140222;28;80598;-61
2021/11/14 14:29:36;;;;;;;13.63;7.32;;;23.70;56.00;;;;;;6142156;28;81720;-62
2021/11/14 14:32:36;;;;;;;13.18;7.65;;;23.70;56.00;;;;;;6145494;28;80421;-62
2021/11/14 14:35:37;;;;;;;13.38;8.40;;;23.70;56.20;;;;;;6148056;28;80348;-62
2021/11/14 14:38:37;;;;;;;13.25;7.60;;;23.70;55.80;;;;;;6148488;28;86555;-61
2021/11/14 14:41:38;;;;;;;14.20;8.27;;;23.70;55.80;;;;;;6147563;28;81583;-62
2021/11/14 14:44:38;;;;;;;13.73;7.30;;;23.70;55.80;;;;;;6143757;28;81036;-61
2021/11/14 14:47:39;;;;;;;16.75;8.55;;;23.70;56.30;;;;;;6147120;28;80303;-61
2021/11/14 14:50:39;;;;;;;13.68;8.23;;;23.70;56.20;;;;;;6144309;28;80900;-63
2021/11/14 14:53:40;;;;;;;13.23;7.32;;;23.70;56.20;;;;;;6148197;28;80296;-62
2021/11/14 14:56:40;;;;;;;13.45;8.07;;;23.70;56.80;;;;;;6141707;28;80490;-62
2021/11/14 14:59:42;;;;;;;13.98;8.30;;;23.70;56.80;;;;;;6147099;28;80532;-61
2021/11/14 15:02:43;;;;;;;14.82;8.88;;;23.70;56.50;;;;;;6144203;28;81248;-64
2021/11/14 15:05:43;;;;;;;12.73;8.25;;;23.70;56.60;;;;;;6152489;28;80423;-63
2021/11/14 15:08:44;;;;;;;16.05;8.43;;;23.70;56.30;;;;;;6150555;28;80215;-65
2021/11/14 15:11:44;;;;;;;12.63;7.93;;;23.70;56.30;;;;;;6138388;28;81630;-63
2021/11/14 15:14:45;;;;;;;25.42;12.77;;;23.70;56.20;;;;;;6135652;28;81602;-65
2021/11/14 15:17:45;;;;;;;106.88;57.88;;;23.70;56.20;;;;;;6144709;28;83546;-62
2021/11/14 15:20:47;;;;;;;183.60;94.32;;;23.60;56.50;;;;;;6138142;28;82826;-65